createdAt,value
2023-02-27T00:02:47.879Z,-3.30
2023-02-27T00:05:45.620Z,-3.20
2023-02-27T00:08:43.349Z,-3.20
2023-02-27T00:11:41.099Z,-3.10
2023-02-27T00:14:38.852Z,-3.00
2023-02-27T00:26:05.355Z,-3.10
2023-02-27T00:29:04.237Z,-3.20
2023-02-27T00:32:02.120Z,-3.20
2023-02-27T00:34:59.892Z,-3.10
2023-02-27T00:37:57.665Z,-2.90
2023-02-27T00:40:56.656Z,-2.90
2023-02-27T00:43:54.458Z,-3.10
2023-02-27T00:46:52.349Z,-3.10
2023-02-27T00:49:50.203Z,-2.90
2023-02-27T00:52:48.072Z,-2.90
2023-02-27T00:55:45.717Z,-3.10
2023-02-27T00:58:43.485Z,-3.20
2023-02-27T01:01:41.166Z,-3.10
2023-02-27T01:04:39.037Z,-3.20
2023-02-27T01:07:38.004Z,-3.20
2023-02-27T01:10:35.687Z,-3.30
2023-02-27T01:13:33.406Z,-3.20
2023-02-27T01:16:31.439Z,-3.20
2023-02-27T01:19:29.257Z,-3.10
2023-02-27T01:22:27.256Z,-3.10
2023-02-27T01:25:24.957Z,-3.20
2023-02-27T01:28:22.845Z,-3.20
2023-02-27T01:31:20.457Z,-3.20
2023-02-27T01:38:41.144Z,-3.20
2023-02-27T01:41:38.807Z,-3.10
2023-02-27T01:45:11.890Z,-3.20
2023-02-27T01:48:31.461Z,-3.10
2023-02-27T01:51:35.098Z,-3.30
2023-02-27T01:54:38.035Z,-3.20
2023-02-27T01:57:37.001Z,-3.20
2023-02-27T02:00:34.786Z,-3.30
2023-02-27T02:03:38.402Z,-3.20
2023-02-27T02:06:39.183Z,-3.30
2023-02-27T02:09:41.999Z,-3.20
2023-02-27T02:12:40.802Z,-3.30
2023-02-27T02:15:45.895Z,-3.30
2023-02-27T02:19:13.170Z,-3.20
2023-02-27T02:22:29.540Z,-3.10
2023-02-27T02:25:35.991Z,-2.80
2023-02-27T02:28:58.374Z,-2.80
2023-02-27T02:32:40.196Z,-3.00
2023-02-27T02:35:37.651Z,-2.90
2023-02-27T02:38:53.645Z,-2.90
2023-02-27T02:42:02.785Z,-2.80
2023-02-27T02:45:36.805Z,-2.60
2023-02-27T02:48:47.136Z,-2.50
2023-02-27T02:52:03.241Z,-2.50
2023-02-27T02:55:09.526Z,-2.30
2023-02-27T02:58:13.325Z,-2.30
2023-02-27T03:01:37.028Z,-2.10
2023-02-27T03:04:37.129Z,-2.10
2023-02-27T03:07:40.751Z,-1.90
2023-02-27T03:10:54.986Z,-1.80
2023-02-27T03:13:59.503Z,-1.80
2023-02-27T03:17:02.814Z,-1.90
2023-02-27T03:20:08.821Z,-1.80
2023-02-27T03:23:12.850Z,-1.60
2023-02-27T03:26:13.964Z,-1.40
2023-02-27T03:29:17.308Z,-1.30
2023-02-27T03:32:19.806Z,-1.10
2023-02-27T03:35:17.624Z,-1.00
2023-02-27T03:38:33.893Z,-1.10
2023-02-27T03:41:40.421Z,-1.30
2023-02-27T03:44:47.034Z,-1.00
2023-02-27T03:47:45.260Z,-0.70
2023-02-27T03:50:42.964Z,-0.60
2023-02-27T03:53:59.159Z,-0.60
2023-02-27T03:57:05.543Z,-0.80
2023-02-27T04:00:06.345Z,-0.50
2023-02-27T04:03:06.298Z,-0.40
2023-02-27T04:06:24.229Z,-0.30
2023-02-27T04:09:47.130Z,-0.30
2023-02-27T04:13:02.630Z,-0.10
2023-02-27T04:16:16.186Z,-0.50
2023-02-27T04:19:53.623Z,-0.50
2023-02-27T04:23:03.349Z,-0.10
2023-02-27T04:26:14.916Z,0.10
2023-02-27T04:29:38.558Z,0.20
2023-02-27T04:32:38.441Z,0.10
2023-02-27T04:35:53.466Z,0.30
2023-02-27T04:39:02.768Z,0.50
2023-02-27T04:42:13.960Z,0.80
2023-02-27T04:45:15.628Z,1.10
2023-02-27T04:48:26.192Z,1.10
2023-02-27T04:51:32.602Z,1.20
2023-02-27T04:54:39.506Z,1.30
2023-02-27T04:57:50.556Z,1.30
2023-02-27T05:00:55.563Z,1.50
2023-02-27T05:03:55.626Z,1.50
2023-02-27T05:06:55.856Z,1.40
2023-02-27T05:10:04.333Z,1.40
2023-02-27T05:13:10.773Z,1.20
2023-02-27T05:16:45.061Z,1.20
2023-02-27T05:19:44.480Z,1.20
2023-02-27T05:23:05.149Z,1.20
2023-02-27T05:26:14.700Z,0.90
2023-02-27T05:29:28.881Z,0.70
2023-02-27T05:32:34.094Z,0.70
2023-02-27T05:35:39.764Z,0.70
2023-02-27T05:38:50.216Z,0.70
2023-02-27T05:42:11.858Z,0.50
2023-02-27T05:45:14.900Z,0.60
2023-02-27T05:48:21.338Z,0.40
2023-02-27T05:51:21.638Z,0.60
2023-02-27T05:54:30.065Z,0.80
2023-02-27T05:57:52.173Z,1.20
2023-02-27T06:01:02.185Z,1.20
2023-02-27T06:04:00.183Z,1.00
2023-02-27T06:06:58.672Z,1.00
2023-02-27T06:09:56.980Z,1.20
2023-02-27T06:12:54.657Z,1.40
2023-02-27T06:15:52.590Z,1.50
2023-02-27T06:18:50.224Z,1.50
2023-02-27T06:21:47.937Z,1.30
2023-02-27T06:24:46.154Z,1.60
2023-02-27T06:27:43.882Z,1.80
2023-02-27T06:30:41.817Z,1.80
2023-02-27T06:33:39.668Z,2.00
2023-02-27T06:36:37.283Z,1.70
2023-02-27T06:39:34.942Z,1.80
2023-02-27T06:42:33.274Z,1.70
2023-02-27T06:45:31.299Z,1.80
2023-02-27T06:48:29.031Z,1.80
2023-02-27T06:51:26.787Z,1.90
2023-02-27T06:54:24.589Z,2.00
2023-02-27T06:57:22.428Z,2.00
2023-02-27T07:00:20.536Z,1.90
2023-02-27T07:03:18.193Z,2.00
2023-02-27T07:06:15.802Z,2.00
2023-02-27T07:09:13.855Z,2.10
2023-02-27T07:12:11.782Z,1.50
2023-02-27T07:15:10.582Z,1.70
2023-02-27T07:18:08.408Z,1.30
2023-02-27T07:21:06.533Z,1.70
2023-02-27T07:24:05.265Z,2.00
2023-02-27T07:27:03.011Z,1.80
2023-02-27T07:30:01.585Z,2.10
2023-02-27T07:32:59.566Z,2.30
2023-02-27T07:35:57.271Z,2.50
2023-02-27T07:38:55.049Z,2.60
2023-02-27T07:41:52.803Z,2.60
2023-02-27T07:44:50.548Z,2.60
2023-02-27T07:47:49.104Z,2.70
2023-02-27T07:50:47.072Z,2.70
2023-02-27T07:53:44.670Z,2.60
2023-02-27T07:56:42.411Z,2.60
2023-02-27T07:59:41.685Z,2.80
2023-02-27T08:02:39.777Z,2.30
2023-02-27T08:05:37.534Z,2.40
2023-02-27T08:08:35.858Z,2.10
2023-02-27T08:11:33.599Z,1.50
2023-02-27T08:14:31.362Z,1.80
2023-02-27T08:17:28.971Z,2.00
2023-02-27T08:20:26.893Z,2.40
2023-02-27T08:23:24.536Z,2.80
2023-02-27T08:26:23.091Z,2.50
2023-02-27T08:29:20.831Z,2.70
2023-02-27T08:32:18.586Z,3.00
2023-02-27T08:35:34.779Z,3.00
2023-02-27T08:38:34.330Z,2.90
2023-02-27T08:41:32.097Z,3.20
2023-02-27T08:44:30.093Z,2.90
2023-02-27T08:47:27.897Z,3.00
2023-02-27T08:50:25.881Z,3.20
2023-02-27T08:53:23.754Z,3.10
2023-02-27T08:56:21.788Z,3.40
2023-02-27T08:59:19.574Z,3.60
2023-02-27T09:02:17.410Z,3.70
2023-02-27T09:05:15.411Z,3.90
2023-02-27T09:08:13.650Z,4.10
2023-02-27T09:11:14.309Z,3.70
2023-02-27T09:14:12.525Z,3.90
2023-02-27T09:17:10.228Z,3.80
2023-02-27T09:20:10.216Z,4.10
2023-02-27T09:23:08.464Z,4.20
2023-02-27T09:26:07.235Z,4.10
2023-02-27T09:29:05.019Z,4.00
2023-02-27T09:32:02.906Z,3.90
2023-02-27T09:35:00.959Z,4.10
2023-02-27T09:37:59.262Z,4.20
2023-02-27T09:40:57.661Z,3.30
2023-02-27T09:43:55.692Z,3.70
2023-02-27T09:46:54.478Z,4.00
2023-02-27T09:50:01.351Z,4.00
2023-02-27T09:52:59.708Z,3.90
2023-02-27T09:56:04.897Z,3.30
2023-02-27T09:59:26.442Z,3.20
2023-02-27T10:02:57.148Z,3.20
2023-02-27T10:06:28.863Z,3.20
2023-02-27T10:09:38.527Z,2.40
2023-02-27T10:12:53.870Z,2.50
2023-02-27T10:15:54.252Z,2.20
2023-02-27T10:19:12.011Z,2.80
2023-02-27T10:22:16.873Z,2.70
2023-02-27T10:25:30.660Z,2.40
2023-02-27T10:28:33.127Z,2.80
2023-02-27T10:31:35.219Z,2.90
2023-02-27T10:34:35.028Z,2.90
2023-02-27T10:37:33.396Z,2.60
2023-02-27T10:40:31.917Z,2.60
2023-02-27T10:43:29.879Z,2.10
2023-02-27T10:46:31.872Z,2.40
2023-02-27T10:49:32.904Z,2.50
2023-02-27T10:52:32.285Z,2.40
2023-02-27T10:55:32.837Z,2.60
2023-02-27T10:58:35.086Z,2.40
2023-02-27T11:01:56.868Z,2.20
2023-02-27T11:04:56.481Z,2.00
2023-02-27T11:07:56.454Z,2.20
2023-02-27T11:11:14.018Z,2.40
2023-02-27T11:14:29.138Z,2.40
2023-02-27T11:17:31.030Z,1.80
2023-02-27T11:20:41.018Z,1.70
2023-02-27T11:23:39.032Z,2.00
2023-02-27T11:26:41.058Z,2.00
2023-02-27T11:29:39.112Z,2.20
2023-02-27T11:32:46.931Z,2.10
2023-02-27T11:35:57.991Z,1.90
2023-02-27T11:38:57.895Z,1.80
2023-02-27T11:41:58.301Z,1.20
2023-02-27T11:45:01.474Z,0.80
2023-02-27T11:48:11.732Z,0.90
2023-02-27T11:51:37.671Z,1.10
2023-02-27T11:54:51.446Z,0.90
2023-02-27T11:57:55.095Z,0.80
2023-02-27T12:00:59.624Z,1.00
2023-02-27T12:04:10.765Z,1.30
2023-02-27T12:07:20.932Z,1.40
2023-02-27T12:10:23.559Z,1.50
2023-02-27T12:13:32.574Z,1.50
2023-02-27T12:16:45.857Z,1.30
2023-02-27T12:19:53.437Z,1.30
2023-02-27T12:22:54.620Z,1.30
2023-02-27T12:26:05.796Z,1.20
2023-02-27T12:29:31.732Z,1.00
2023-02-27T12:32:50.540Z,0.90
2023-02-27T12:35:56.785Z,0.80
2023-02-27T12:38:55.122Z,0.60
2023-02-27T12:42:21.852Z,0.70
2023-02-27T12:45:50.499Z,0.70
2023-02-27T12:49:20.586Z,0.60
2023-02-27T12:52:47.786Z,0.10
2023-02-27T12:55:55.619Z,0.40
2023-02-27T12:59:23.989Z,0.70
2023-02-27T13:02:53.022Z,0.70
2023-02-27T13:06:02.320Z,1.00
2023-02-27T13:09:18.954Z,1.00
2023-02-27T13:12:50.935Z,1.20
2023-02-27T13:16:01.657Z,1.30
2023-02-27T13:19:14.733Z,1.40
2023-02-27T13:22:27.978Z,1.40
2023-02-27T13:25:26.576Z,1.50
2023-02-27T13:28:28.004Z,1.50
2023-02-27T13:31:46.381Z,1.50
2023-02-27T13:34:49.820Z,1.50
2023-02-27T13:37:57.602Z,1.40
2023-02-27T13:40:55.496Z,1.40
2023-02-27T13:43:58.733Z,1.50
2023-02-27T13:47:16.372Z,1.50
2023-02-27T13:50:44.225Z,1.50
2023-02-27T13:53:42.159Z,1.40
2023-02-27T13:56:46.441Z,1.30
2023-02-27T13:59:52.674Z,1.00
2023-02-27T14:03:00.362Z,1.00
2023-02-27T14:06:02.872Z,0.90
2023-02-27T14:09:14.432Z,0.90
2023-02-27T14:12:44.315Z,0.80
2023-02-27T14:15:54.880Z,0.60
2023-02-27T14:18:57.346Z,0.60
2023-02-27T14:21:59.585Z,0.50
2023-02-27T14:25:05.760Z,0.40
2023-02-27T14:28:05.053Z,0.50
2023-02-27T14:31:06.759Z,0.50
2023-02-27T14:34:06.871Z,0.40
2023-02-27T14:37:11.809Z,0.40
2023-02-27T14:40:30.091Z,0.40
2023-02-27T14:43:41.154Z,0.50
2023-02-27T14:46:40.016Z,0.50
2023-02-27T14:49:38.059Z,0.50
2023-02-27T14:52:43.836Z,0.20
2023-02-27T14:55:41.526Z,0.30
2023-02-27T14:58:39.395Z,0.30
2023-02-27T15:01:37.991Z,0.40
2023-02-27T15:04:36.299Z,0.30
2023-02-27T15:07:35.542Z,0.20
2023-02-27T15:10:34.008Z,0.20
2023-02-27T15:13:34.930Z,0.30
2023-02-27T15:16:38.354Z,0.30
2023-02-27T15:19:37.707Z,0.20
2023-02-27T15:22:40.066Z,0.30
2023-02-27T15:25:40.341Z,0.40
2023-02-27T15:28:42.048Z,0.50
2023-02-27T15:31:39.890Z,0.70
2023-02-27T15:34:38.014Z,0.60
2023-02-27T15:37:36.916Z,0.50
2023-02-27T15:40:35.808Z,0.30
2023-02-27T15:43:33.895Z,0.10
2023-02-27T15:46:32.750Z,0.20
2023-02-27T15:49:30.782Z,0.10
2023-02-27T15:52:34.020Z,0.20
2023-02-27T15:55:35.501Z,0.20
2023-02-27T15:58:37.556Z,0.20
2023-02-27T16:01:35.575Z,0.20
2023-02-27T16:04:35.378Z,0.10
2023-02-27T16:07:41.262Z,0.10
2023-02-27T16:10:44.035Z,0.20
2023-02-27T16:13:42.490Z,0.10
2023-02-27T16:16:40.370Z,0.20
2023-02-27T16:19:41.633Z,0.10
2023-02-27T16:23:04.183Z,0.10
2023-02-27T16:26:17.196Z,0.20
2023-02-27T16:29:34.546Z,0.30
2023-02-27T16:32:39.441Z,0.40
2023-02-27T16:35:40.170Z,0.40
2023-02-27T16:38:40.852Z,0.40
2023-02-27T16:41:41.745Z,0.40
2023-02-27T16:44:39.491Z,0.40
2023-02-27T16:47:37.362Z,0.40
2023-02-27T16:50:41.087Z,0.30
2023-02-27T16:53:38.957Z,0.40
2023-02-27T16:56:38.983Z,0.30
2023-02-27T16:59:41.758Z,0.30
2023-02-27T17:02:39.698Z,0.30
2023-02-27T17:05:37.676Z,0.40
2023-02-27T17:08:36.638Z,0.30
2023-02-27T17:11:34.570Z,0.30
2023-02-27T17:14:32.345Z,0.30
2023-02-27T17:17:30.969Z,0.30
2023-02-27T17:20:30.629Z,0.40
2023-02-27T17:23:28.634Z,0.40
2023-02-27T17:26:27.699Z,0.40
2023-02-27T17:29:28.724Z,0.30
2023-02-27T17:32:26.665Z,0.30
2023-02-27T17:35:31.527Z,0.30
2023-02-27T17:38:29.366Z,0.10
2023-02-27T17:41:30.598Z,0.10
2023-02-27T17:44:28.354Z,0.10
2023-02-27T17:47:26.452Z,0.00
2023-02-27T17:50:24.297Z,-0.10
2023-02-27T17:53:22.224Z,-0.10
2023-02-27T17:56:19.964Z,-0.30
2023-02-27T17:59:17.853Z,-0.40
2023-02-27T18:02:16.021Z,-0.50
2023-02-27T18:05:15.518Z,-0.60
2023-02-27T18:08:13.442Z,-0.70
2023-02-27T18:11:13.088Z,-0.90
2023-02-27T18:14:10.914Z,-0.90
2023-02-27T18:17:12.692Z,-1.00
2023-02-27T18:20:11.870Z,-1.10
2023-02-27T18:23:10.372Z,-1.20
2023-02-27T18:26:12.510Z,-1.30
2023-02-27T18:29:18.324Z,-1.40
2023-02-27T18:32:34.856Z,-1.50
2023-02-27T18:35:33.141Z,-1.60
2023-02-27T18:38:30.988Z,-1.70
2023-02-27T18:41:31.702Z,-1.60
2023-02-27T18:44:29.562Z,-1.70
2023-02-27T18:47:30.355Z,-1.70
2023-02-27T18:50:28.685Z,-1.80
2023-02-27T18:53:26.805Z,-1.80
2023-02-27T18:56:26.492Z,-1.90
2023-02-27T18:59:24.525Z,-2.00
2023-02-27T19:02:22.361Z,-2.00
2023-02-27T19:05:24.254Z,-2.00
2023-02-27T19:08:22.176Z,-2.00
2023-02-27T19:11:25.898Z,-2.00
2023-02-27T19:14:23.667Z,-2.00
2023-02-27T19:17:21.731Z,-2.00
2023-02-27T19:20:19.603Z,-2.10
2023-02-27T19:23:20.537Z,-2.10
2023-02-27T19:26:18.500Z,-2.10
2023-02-27T19:29:17.253Z,-2.10
2023-02-27T19:32:15.253Z,-2.20
2023-02-27T19:35:15.708Z,-2.20
2023-02-27T19:38:14.101Z,-2.20
2023-02-27T19:41:17.603Z,-2.20
2023-02-27T19:44:15.330Z,-2.20
2023-02-27T19:47:13.606Z,-2.20
2023-02-27T19:50:12.228Z,-2.10
2023-02-27T19:53:16.870Z,-2.10
2023-02-27T19:56:17.999Z,-2.00
2023-02-27T19:59:16.128Z,-2.00
2023-02-27T20:02:14.043Z,-2.00
2023-02-27T20:05:12.563Z,-1.90
2023-02-27T20:08:10.444Z,-2.00
2023-02-27T20:11:08.415Z,-2.00
2023-02-27T20:14:06.487Z,-2.00
2023-02-27T20:17:04.755Z,-2.10
2023-02-27T20:20:02.756Z,-2.10
2023-02-27T20:23:03.460Z,-2.10
2023-02-27T20:26:02.567Z,-2.20
2023-02-27T20:29:03.266Z,-2.20
2023-02-27T20:32:01.329Z,-2.20
2023-02-27T20:35:02.377Z,-2.20
2023-02-27T20:38:00.160Z,-2.30
2023-02-27T20:40:58.940Z,-2.30
2023-02-27T20:43:56.729Z,-2.40
2023-02-27T20:46:54.700Z,-2.40
2023-02-27T20:49:52.434Z,-2.40
2023-02-27T20:52:55.706Z,-2.40
2023-02-27T20:55:54.575Z,-2.40
2023-02-27T20:58:52.423Z,-2.40
2023-02-27T21:01:53.495Z,-2.30
2023-02-27T21:04:51.666Z,-2.40
2023-02-27T21:07:49.739Z,-2.40
2023-02-27T21:10:51.548Z,-2.30
2023-02-27T21:13:51.934Z,-2.40
2023-02-27T21:16:49.840Z,-2.30
2023-02-27T21:19:47.604Z,-2.40
2023-02-27T21:22:45.536Z,-2.40
2023-02-27T21:25:44.821Z,-2.40
2023-02-27T21:28:48.313Z,-2.40
2023-02-27T21:31:48.923Z,-2.40
2023-02-27T21:34:46.803Z,-2.40
2023-02-27T21:37:47.150Z,-2.50
2023-02-27T21:40:45.003Z,-2.50
2023-02-27T21:43:43.724Z,-2.50
2023-02-27T21:46:41.733Z,-2.50
2023-02-27T21:49:39.859Z,-2.50
2023-02-27T21:52:37.740Z,-2.50
2023-02-27T21:55:35.910Z,-2.50
2023-02-27T21:58:33.960Z,-2.40
2023-02-27T22:01:32.854Z,-2.40
2023-02-27T22:04:30.985Z,-2.40
2023-02-27T22:07:29.344Z,-2.30
2023-02-27T22:10:27.258Z,-2.30
2023-02-27T22:13:25.827Z,-2.40
2023-02-27T22:16:26.578Z,-2.30
2023-02-27T22:19:24.320Z,-2.40
2023-02-27T22:22:22.233Z,-2.50
2023-02-27T22:25:19.985Z,-2.50
2023-02-27T22:28:17.775Z,-2.60
2023-02-27T22:31:19.105Z,-2.60
2023-02-27T22:34:21.031Z,-2.60
2023-02-27T22:37:20.299Z,-2.60
2023-02-27T22:40:19.344Z,-2.60
2023-02-27T22:43:17.585Z,-2.60
2023-02-27T22:46:18.760Z,-2.70
2023-02-27T22:49:20.597Z,-2.80
2023-02-27T22:52:18.548Z,-2.90
2023-02-27T22:55:16.270Z,-3.00
2023-02-27T22:58:14.120Z,-3.00
2023-02-27T23:01:17.016Z,-3.00
2023-02-27T23:04:17.593Z,-3.10
2023-02-27T23:07:15.354Z,-3.10
2023-02-27T23:10:13.295Z,-3.10
2023-02-27T23:13:14.062Z,-3.30
2023-02-27T23:16:14.293Z,-3.30
2023-02-27T23:19:16.026Z,-3.40
2023-02-27T23:22:13.846Z,-3.40
2023-02-27T23:25:12.332Z,-3.40
2023-02-27T23:28:14.589Z,-3.40
2023-02-27T23:31:12.541Z,-3.50
2023-02-27T23:34:11.033Z,-3.50
2023-02-27T23:37:11.861Z,-3.50
2023-02-27T23:40:10.458Z,-3.60
2023-02-27T23:43:08.188Z,-3.60
2023-02-27T23:46:09.355Z,-3.70
2023-02-27T23:49:07.690Z,-3.80
2023-02-27T23:52:05.693Z,-3.80
2023-02-27T23:55:03.537Z,-3.70
2023-02-27T23:58:03.033Z,-3.80
